Time;durP1;ratioP1;P1;durP2;ratioP2;P2;SDS_P1;SDS_P2;PMS_P1;PMS_P2;Temp;Humidity;BMP_temperature;BMP_pressure;BME280_temperature;BME280_humidity;BME280_pressure;Samples;Min_cycle;Max_cycle;Signal;HPM_P1;HPM_P2
2023/09/02 04:01:46;;;;;;;4.63;4.22;;;10.80;99.90;;;;;;6115805;23;20258;-71
2023/09/02 04:04:12;;;;;;;3.88;3.67;;;10.80;99.90;;;;;;6151589;23;20180;-72
2023/09/02 04:06:39;;;;;;;4.85;4.45;;;10.80;99.90;;;;;;6152593;23;20202;-71
2023/09/02 04:09:07;;;;;;;4.05;3.78;;;10.80;99.90;;;;;;6151018;23;20194;-72
2023/09/02 04:11:34;;;;;;;4.45;4.15;;;10.80;99.90;;;;;;6152253;23;20289;-72
2023/09/02 04:14:01;;;;;;;6.32;4.90;;;10.70;99.90;;;;;;6152638;23;20491;-72
2023/09/02 04:16:28;;;;;;;4.68;4.25;;;10.80;99.90;;;;;;6154457;23;20269;-74
2023/09/02 04:19:02;;;;;;;4.47;4.18;;;10.80;99.90;;;;;;6152271;23;20190;-70
2023/09/02 04:21:29;;;;;;;3.75;3.53;;;10.70;99.90;;;;;;6153727;23;20198;-71
2023/09/02 04:23:55;;;;;;;4.45;4.15;;;10.70;99.90;;;;;;6154381;23;20201;-71
2023/09/02 04:26:22;;;;;;;3.95;3.67;;;10.70;99.90;;;;;;6154542;23;20513;-72
2023/09/02 04:28:49;;;;;;;4.47;4.28;;;10.70;99.90;;;;;;6154487;23;20191;-71
2023/09/02 04:31:15;;;;;;;4.25;3.95;;;10.70;99.90;;;;;;6153811;23;20298;-71
2023/09/02 04:33:42;;;;;;;4.07;3.45;;;10.70;99.90;;;;;;6154677;23;20201;-72
2023/09/02 04:36:10;;;;;;;3.70;3.40;;;10.70;99.90;;;;;;6154494;23;20282;-72
2023/09/02 04:38:37;;;;;;;4.88;4.32;;;10.70;99.90;;;;;;6153131;23;20258;-71
2023/09/02 04:41:05;;;;;;;4.55;4.30;;;10.70;99.90;;;;;;6154499;23;20203;-70
2023/09/02 04:43:31;;;;;;;4.50;4.10;;;10.70;99.90;;;;;;6154073;23;20179;-71
2023/09/02 04:46:01;;;;;;;3.75;3.42;;;10.70;99.90;;;;;;6154698;23;20194;-71
2023/09/02 04:48:29;;;;;;;4.07;3.83;;;10.70;99.90;;;;;;6155210;23;20215;-72
2023/09/02 04:50:56;;;;;;;5.60;4.35;;;10.70;99.90;;;;;;6154115;23;20689;-71
2023/09/02 04:53:24;;;;;;;4.10;3.90;;;10.70;99.90;;;;;;6155231;23;20179;-72
2023/09/02 04:55:51;;;;;;;4.68;4.28;;;10.70;99.90;;;;;;6153968;23;20188;-72
2023/09/02 04:58:20;;;;;;;3.67;3.58;;;10.80;99.90;;;;;;6154812;23;20179;-71
2023/09/02 05:00:47;;;;;;;4.65;4.28;;;10.70;99.90;;;;;;6153399;23;20676;-71
2023/09/02 05:03:13;;;;;;;4.40;4.10;;;10.80;99.90;;;;;;6152218;23;20175;-70
2023/09/02 05:05:41;;;;;;;4.35;3.97;;;10.90;99.90;;;;;;6151967;23;20167;-71
2023/09/02 05:08:08;;;;;;;3.70;3.30;;;10.80;99.90;;;;;;6153731;23;20190;-71
2023/09/02 05:10:36;;;;;;;3.92;3.63;;;10.80;99.90;;;;;;6154176;23;20207;-70
2023/09/02 05:13:03;;;;;;;4.25;3.92;;;10.90;99.90;;;;;;6153541;23;20206;-71
2023/09/02 05:15:30;;;;;;;4.53;4.15;;;10.90;99.90;;;;;;6155055;23;20275;-70
2023/09/02 05:17:58;;;;;;;4.13;3.92;;;10.90;99.90;;;;;;6153830;23;20265;-69
2023/09/02 05:20:24;;;;;;;5.10;4.65;;;10.90;99.90;;;;;;6153104;23;20238;-69
2023/09/02 05:22:51;;;;;;;3.97;3.67;;;11.00;99.90;;;;;;6151862;23;20183;-70
2023/09/02 05:25:18;;;;;;;3.85;3.70;;;11.00;99.90;;;;;;6163294;23;20176;-70
2023/09/02 05:27:48;;;;;;;4.28;3.97;;;11.00;99.90;;;;;;6155259;23;20493;-70
2023/09/02 05:30:15;;;;;;;4.80;4.43;;;11.00;99.90;;;;;;6154024;23;20496;-69
2023/09/02 05:32:42;;;;;;;4.85;4.45;;;11.10;99.90;;;;;;6154731;23;20651;-71
2023/09/02 05:35:09;;;;;;;3.78;3.63;;;11.10;99.90;;;;;;6153857;23;20179;-70
2023/09/02 05:37:35;;;;;;;3.65;3.47;;;11.10;99.90;;;;;;6153689;23;20206;-70
2023/09/02 05:40:03;;;;;;;4.68;4.38;;;11.20;99.90;;;;;;6152526;23;20640;-71
2023/09/02 05:42:29;;;;;;;5.20;4.75;;;11.30;99.90;;;;;;6155454;23;20199;-70
2023/09/02 05:44:57;;;;;;;5.30;4.90;;;11.30;99.90;;;;;;6154999;23;20184;-71
2023/09/02 05:47:24;;;;;;;4.75;4.45;;;11.40;99.90;;;;;;6154736;23;20187;-71
2023/09/02 05:49:51;;;;;;;4.55;4.10;;;11.40;99.90;;;;;;6153011;23;20179;-70
2023/09/02 05:52:17;;;;;;;6.22;4.57;;;11.50;99.90;;;;;;6154033;23;20203;-70
2023/09/02 05:54:44;;;;;;;5.15;4.72;;;11.60;99.90;;;;;;6154001;23;20190;-69
2023/09/02 05:57:11;;;;;;;5.47;4.50;;;11.70;99.90;;;;;;6153821;23;20180;-70
2023/09/02 05:59:37;;;;;;;5.80;3.70;;;11.70;99.90;;;;;;6153999;23;20187;-70
2023/09/02 06:02:06;;;;;;;7.05;4.30;;;11.80;99.90;;;;;;6153271;23;20213;-69
2023/09/02 06:04:33;;;;;;;4.65;4.22;;;11.90;99.90;;;;;;6154701;23;20189;-70
2023/09/02 06:06:59;;;;;;;5.38;4.97;;;11.90;99.90;;;;;;6153940;23;20180;-70
2023/09/02 06:09:27;;;;;;;4.63;4.23;;;12.00;99.90;;;;;;6152891;23;20187;-70
2023/09/02 06:11:53;;;;;;;5.57;4.73;;;12.10;99.90;;;;;;6154201;23;20727;-70
2023/09/02 06:14:20;;;;;;;5.97;4.60;;;12.10;99.90;;;;;;6154880;23;20442;-70
2023/09/02 06:16:47;;;;;;;5.33;5.03;;;12.20;99.90;;;;;;6154471;23;20530;-71
2023/09/02 06:19:15;;;;;;;3.90;3.70;;;12.30;99.90;;;;;;6154036;23;20776;-71
2023/09/02 06:21:42;;;;;;;4.93;4.63;;;12.40;99.90;;;;;;6153534;23;20435;-71
2023/09/02 06:24:09;;;;;;;4.73;4.47;;;12.40;99.90;;;;;;6154711;23;20446;-71
2023/09/02 06:26:36;;;;;;;5.67;5.17;;;12.50;99.90;;;;;;6154545;23;20430;-71
2023/09/02 06:29:03;;;;;;;5.37;4.33;;;12.50;99.90;;;;;;6154660;23;20460;-70
2023/09/02 06:31:29;;;;;;;4.93;4.53;;;12.60;99.90;;;;;;6156449;23;20458;-71
2023/09/02 06:33:56;;;;;;;5.07;4.30;;;12.70;99.90;;;;;;6156831;23;20773;-71
2023/09/02 06:36:24;;;;;;;4.57;4.20;;;12.80;99.90;;;;;;6154872;23;20422;-69
2023/09/02 06:38:51;;;;;;;5.10;4.73;;;12.90;99.90;;;;;;6154957;23;20419;-70
2023/09/02 06:41:18;;;;;;;4.67;4.37;;;13.00;99.90;;;;;;6153556;23;20443;-71
2023/09/02 06:43:45;;;;;;;5.40;4.93;;;13.00;99.90;;;;;;6154087;23;20422;-71
2023/09/02 06:46:15;;;;;;;4.80;4.10;;;13.10;99.90;;;;;;6153499;23;20419;-70
2023/09/02 06:48:42;;;;;;;5.30;4.60;;;13.20;99.90;;;;;;6152954;23;20517;-70
2023/09/02 06:51:08;;;;;;;5.63;5.07;;;13.30;99.90;;;;;;6152994;23;20561;-70
2023/09/02 06:53:37;;;;;;;5.23;4.47;;;13.40;99.90;;;;;;6153647;23;20423;-70
2023/09/02 06:56:07;;;;;;;4.77;4.37;;;13.50;99.90;;;;;;6153160;23;20926;-70
2023/09/02 06:58:34;;;;;;;4.53;4.10;;;13.60;99.90;;;;;;6150679;23;20406;-69
2023/09/02 07:01:00;;;;;;;5.10;4.60;;;13.70;99.90;;;;;;6153209;23;20442;-68
2023/09/02 07:03:27;;;;;;;4.80;4.50;;;13.80;99.90;;;;;;6153357;23;20425;-68
2023/09/02 07:05:54;;;;;;;5.13;4.83;;;13.90;99.90;;;;;;6152945;23;20426;-68
2023/09/02 07:08:20;;;;;;;4.40;4.10;;;14.00;99.90;;;;;;6154229;23;20425;-70
2023/09/02 07:10:48;;;;;;;6.10;4.90;;;14.10;99.90;;;;;;6152477;23;20450;-70
2023/09/02 07:13:15;;;;;;;4.90;4.60;;;14.20;99.90;;;;;;6150543;23;20923;-70
2023/09/02 07:15:42;;;;;;;5.00;4.67;;;14.30;99.90;;;;;;6152920;23;20914;-70
2023/09/02 07:18:08;;;;;;;5.70;5.10;;;14.40;99.90;;;;;;6153780;23;20790;-70
2023/09/02 07:20:38;;;;;;;4.60;4.20;;;14.50;99.90;;;;;;6152841;23;20435;-70
2023/09/02 07:23:05;;;;;;;4.90;4.50;;;14.60;99.90;;;;;;6152973;23;20501;-69
2023/09/02 07:25:32;;;;;;;4.57;4.17;;;14.80;99.90;;;;;;6153441;23;20419;-70
2023/09/02 07:28:00;;;;;;;3.97;3.77;;;14.80;99.90;;;;;;6152290;23;20418;-69
2023/09/02 07:30:26;;;;;;;3.77;3.47;;;15.00;99.90;;;;;;6152662;23;20419;-70
2023/09/02 07:32:53;;;;;;;5.23;4.87;;;15.10;99.90;;;;;;6152339;23;20503;-70
2023/09/02 07:35:20;;;;;;;4.83;4.43;;;15.20;99.90;;;;;;6152792;23;20911;-70
2023/09/02 07:37:47;;;;;;;3.83;3.63;;;15.20;99.90;;;;;;6152476;23;20637;-70
2023/09/02 07:40:14;;;;;;;4.07;3.13;;;15.40;99.90;;;;;;6153180;23;20749;-70
2023/09/02 07:42:41;;;;;;;2.83;2.63;;;15.40;99.90;;;;;;6153438;23;20419;-70
2023/09/02 07:45:11;;;;;;;3.30;3.10;;;15.50;99.90;;;;;;6152785;23;20425;-70
2023/09/02 07:47:38;;;;;;;3.30;3.10;;;15.60;99.90;;;;;;6154403;23;20456;-70
2023/09/02 07:50:06;;;;;;;2.17;2.17;;;15.70;99.90;;;;;;6150284;23;20423;-69
2023/09/02 07:52:32;;;;;;;2.27;2.17;;;15.80;99.90;;;;;;6150118;23;20458;-70
2023/09/02 07:54:59;;;;;;;1.70;1.70;;;15.90;99.90;;;;;;6149703;23;20418;-71
2023/09/02 07:57:27;;;;;;;2.40;1.67;;;16.00;99.90;;;;;;6152082;23;20915;-69
2023/09/02 07:59:53;;;;;;;1.87;1.77;;;16.10;99.90;;;;;;6152088;23;20427;-71
2023/09/02 08:02:21;;;;;;;1.60;1.60;;;16.10;99.90;;;;;;6152543;23;20444;-68
2023/09/02 08:04:48;;;;;;;1.67;1.57;;;16.30;99.90;;;;;;6153232;23;20506;-68
2023/09/02 08:07:15;;;;;;;1.77;1.67;;;16.50;99.90;;;;;;6151407;23;20918;-69
2023/09/02 08:09:42;;;;;;;1.30;1.30;;;16.50;99.90;;;;;;6152400;23;20785;-69
2023/09/02 08:12:11;;;;;;;1.80;1.80;;;16.60;99.90;;;;;;6153007;23;20453;-70
2023/09/02 08:14:38;;;;;;;1.13;1.13;;;16.60;99.90;;;;;;6152290;23;20450;-69
2023/09/02 08:17:05;;;;;;;1.30;1.30;;;16.70;99.90;;;;;;6153149;23;20419;-69
2023/09/02 08:19:33;;;;;;;1.73;1.63;;;16.80;99.90;;;;;;6152339;23;20452;-71
2023/09/02 08:21:59;;;;;;;1.00;1.00;;;16.90;99.90;;;;;;6151534;23;20442;-68
2023/09/02 08:24:26;;;;;;;1.93;1.77;;;17.00;99.90;;;;;;6152933;23;20753;-69
2023/09/02 08:26:53;;;;;;;1.10;1.10;;;17.20;99.90;;;;;;6152913;23;20907;-70
2023/09/02 08:29:19;;;;;;;2.30;1.63;;;17.30;99.90;;;;;;6152361;23;20423;-70
2023/09/02 08:31:46;;;;;;;1.27;1.27;;;17.50;99.90;;;;;;6151893;23;20454;-69
2023/09/02 08:34:13;;;;;;;1.33;1.17;;;17.70;99.90;;;;;;6150702;23;20424;-71
2023/09/02 08:36:41;;;;;;;1.60;1.60;;;17.70;99.90;;;;;;6148934;23;20425;-69
2023/09/02 08:39:07;;;;;;;1.27;1.27;;;17.80;99.90;;;;;;6152031;23;20421;-70
2023/09/02 08:41:36;;;;;;;1.80;1.70;;;17.80;99.90;;;;;;6154316;23;20438;-70
2023/09/02 08:44:04;;;;;;;1.33;1.33;;;17.90;99.90;;;;;;6153481;23;20427;-70
2023/09/02 08:46:33;;;;;;;1.70;1.60;;;17.90;99.90;;;;;;6153277;23;20420;-70
2023/09/02 08:49:00;;;;;;;1.90;1.70;;;18.00;99.90;;;;;;6152997;23;20422;-70
2023/09/02 08:51:27;;;;;;;2.10;1.90;;;18.00;99.90;;;;;;6152661;23;20457;-70
2023/09/02 08:53:56;;;;;;;1.90;1.90;;;18.10;99.90;;;;;;6153514;23;20424;-70
2023/09/02 08:56:24;;;;;;;1.93;1.93;;;18.10;99.90;;;;;;6152636;23;20517;-70
2023/09/02 08:58:54;;;;;;;1.40;1.40;;;18.20;99.90;;;;;;6151620;23;20444;-71
2023/09/02 09:01:22;;;;;;;2.20;2.00;;;18.30;99.90;;;;;;6149682;23;20468;-69
2023/09/02 09:03:54;;;;;;;1.40;1.40;;;18.30;99.90;;;;;;6152978;23;20423;-69
2023/09/02 09:06:24;;;;;;;1.73;1.73;;;18.40;99.90;;;;;;6152934;23;20413;-69
2023/09/02 09:08:53;;;;;;;2.27;2.07;;;18.50;99.90;;;;;;6154386;23;20429;-69
2023/09/02 09:11:22;;;;;;;1.70;1.70;;;18.60;99.90;;;;;;6153516;23;20448;-70
2023/09/02 09:13:52;;;;;;;1.60;1.60;;;18.80;99.90;;;;;;6153322;23;20421;-70
2023/09/02 09:16:23;;;;;;;1.97;1.87;;;18.80;99.90;;;;;;6154549;23;20422;-70
2023/09/02 09:18:50;;;;;;;1.40;1.40;;;18.80;99.90;;;;;;6154087;23;20709;-70
2023/09/02 09:21:19;;;;;;;1.97;1.87;;;18.70;99.90;;;;;;6153761;23;20914;-70
2023/09/02 09:23:46;;;;;;;1.70;1.60;;;18.60;99.90;;;;;;6152809;23;20430;-70
2023/09/02 09:26:15;;;;;;;1.70;1.70;;;18.60;99.90;;;;;;6154605;23;20421;-70
2023/09/02 09:28:53;;;;;;;1.90;1.90;;;18.70;99.90;;;;;;6154885;23;20422;-70
2023/09/02 09:31:20;;;;;;;2.93;2.43;;;18.80;99.90;;;;;;6153192;23;20450;-69
2023/09/02 09:33:53;;;;;;;1.80;1.80;;;18.90;99.90;;;;;;6154433;23;20417;-70
2023/09/02 09:36:21;;;;;;;1.30;1.20;;;19.10;99.90;;;;;;6153653;23;20422;-69
2023/09/02 09:38:49;;;;;;;1.83;1.83;;;19.10;99.90;;;;;;6154274;23;20791;-69
2023/09/02 09:41:15;;;;;;;1.47;1.47;;;19.20;99.90;;;;;;6154069;23;20902;-70
2023/09/02 09:43:42;;;;;;;1.87;1.77;;;19.20;99.90;;;;;;6153239;23;20422;-70
2023/09/02 09:46:13;;;;;;;2.43;2.10;;;19.20;99.90;;;;;;6153133;23;20424;-69
2023/09/02 09:48:46;;;;;;;2.80;2.10;;;19.10;99.90;;;;;;6154365;23;20407;-70
2023/09/02 09:51:22;;;;;;;2.67;2.43;;;19.00;99.90;;;;;;6153446;23;20452;-70
2023/09/02 09:53:49;;;;;;;2.83;2.73;;;18.90;99.90;;;;;;6154503;23;20406;-70
2023/09/02 09:56:16;;;;;;;2.37;2.27;;;19.00;99.90;;;;;;6153765;23;20427;-70
2023/09/02 09:58:43;;;;;;;2.30;2.20;;;19.00;99.90;;;;;;6153348;23;20418;-69
2023/09/02 10:01:12;;;;;;;1.57;1.57;;;19.20;99.90;;;;;;6153743;23;20459;-70
2023/09/02 10:03:39;;;;;;;2.70;2.50;;;19.40;99.90;;;;;;6154296;23;20513;-70
2023/09/02 10:06:06;;;;;;;2.77;2.57;;;19.40;99.90;;;;;;6152981;23;20423;-70
2023/09/02 10:08:51;;;;;;;2.23;1.93;;;19.50;99.90;;;;;;6154290;23;20435;-70
2023/09/02 10:11:22;;;;;;;3.73;2.70;;;19.70;99.90;;;;;;6154027;23;20438;-69
2023/09/02 10:13:51;;;;;;;1.70;1.60;;;19.70;99.90;;;;;;6152724;23;20423;-69
2023/09/02 10:16:19;;;;;;;1.77;1.67;;;19.80;99.90;;;;;;6153638;23;20442;-69
2023/09/02 10:18:48;;;;;;;2.47;2.37;;;19.80;99.90;;;;;;6154373;23;20974;-75
2023/09/02 10:21:15;;;;;;;2.23;2.23;;;19.90;99.90;;;;;;6156215;23;20419;-72
2023/09/02 10:23:47;;;;;;;2.60;2.20;;;19.90;99.90;;;;;;6155845;23;20426;-72
2023/09/02 10:26:19;;;;;;;2.80;2.60;;;20.10;99.90;;;;;;6155670;23;20414;-72
2023/09/02 10:28:50;;;;;;;2.13;2.07;;;20.20;99.90;;;;;;6155719;23;20442;-72
2023/09/02 10:31:22;;;;;;;2.60;2.40;;;20.20;99.90;;;;;;6153239;23;20420;-72
2023/09/02 10:33:55;;;;;;;2.00;1.90;;;20.20;99.90;;;;;;6153710;23;20404;-72
2023/09/02 10:36:27;;;;;;;1.70;1.60;;;20.40;99.90;;;;;;6153382;23;20490;-72
2023/09/02 10:38:56;;;;;;;2.77;2.47;;;20.50;99.90;;;;;;6154014;23;20446;-72
2023/09/02 10:41:25;;;;;;;3.30;2.23;;;20.60;99.90;;;;;;6153714;23;20760;-73
2023/09/02 10:43:53;;;;;;;3.00;2.70;;;20.60;99.90;;;;;;6154441;23;20452;-73
2023/09/02 10:46:22;;;;;;;5.20;4.90;;;20.80;99.90;;;;;;6155288;23;20422;-73
2023/09/02 10:48:49;;;;;;;1.97;1.87;;;20.90;99.90;;;;;;6152887;23;20543;-73
2023/09/02 10:51:16;;;;;;;1.40;1.40;;;21.00;99.90;;;;;;6153177;23;20420;-71
2023/09/02 10:54:01;;;;;;;1.73;1.73;;;20.90;99.90;;;;;;6153239;23;20483;-72
2023/09/02 10:56:30;;;;;;;1.80;1.70;;;20.90;99.90;;;;;;6153541;23;20790;-67
2023/09/02 10:58:57;;;;;;;2.20;2.13;;;20.90;99.90;;;;;;6152835;23;20446;-70
2023/09/02 11:01:28;;;;;;;3.30;2.03;;;20.80;99.90;;;;;;6151326;23;20746;-67
2023/09/02 11:03:56;;;;;;;2.17;2.10;;;20.70;99.90;;;;;;6151503;23;20492;-68
2023/09/02 11:06:22;;;;;;;1.77;1.67;;;20.50;99.90;;;;;;6150294;23;20423;-67
2023/09/02 11:08:50;;;;;;;2.43;2.23;;;20.50;99.90;;;;;;6151292;23;20722;-69
2023/09/02 11:11:17;;;;;;;2.30;2.20;;;20.40;99.90;;;;;;6152168;23;20429;-69
2023/09/02 11:14:21;;;;;;;2.30;2.20;;;20.50;99.90;;;;;;6152647;23;20445;-67
2023/09/02 11:17:27;;;;;;;2.23;2.13;;;20.40;99.90;;;;;;6149965;23;20845;-68
2023/09/02 11:19:58;;;;;;;2.10;2.00;;;20.30;99.90;;;;;;6152293;23;20399;-72
2023/09/02 11:22:46;;;;;;;2.50;2.40;;;20.20;99.90;;;;;;6151354;23;20414;-72
2023/09/02 11:25:27;;;;;;;4.63;2.87;;;20.10;99.90;;;;;;6151857;23;20463;-73
2023/09/02 11:27:55;;;;;;;1.97;1.87;;;20.30;99.90;;;;;;6152839;23;20445;-72
2023/09/02 11:30:22;;;;;;;3.60;1.60;;;20.40;99.90;;;;;;6153196;23;20421;-72
2023/09/02 11:32:51;;;;;;;1.77;1.70;;;20.50;99.90;;;;;;6153304;23;20468;-72
2023/09/02 11:35:24;;;;;;;2.30;2.20;;;20.50;99.90;;;;;;6152544;23;20879;-72
2023/09/02 11:37:51;;;;;;;1.60;1.50;;;20.40;99.90;;;;;;6160005;23;20441;-71
2023/09/02 11:40:19;;;;;;;2.67;2.50;;;20.30;99.90;;;;;;6159441;23;20425;-73
2023/09/02 11:42:50;;;;;;;1.40;1.40;;;20.30;99.90;;;;;;6156169;23;20419;-72
2023/09/02 11:45:17;;;;;;;1.83;1.73;;;20.30;99.90;;;;;;6154309;23;20434;-72
2023/09/02 11:47:45;;;;;;;1.87;1.87;;;20.40;99.90;;;;;;6153425;23;20442;-73
2023/09/02 11:50:14;;;;;;;1.70;1.60;;;20.50;99.90;;;;;;6154169;23;20422;-72
2023/09/02 11:52:40;;;;;;;2.23;1.70;;;20.50;99.90;;;;;;6153953;23;20455;-72
2023/09/02 11:55:09;;;;;;;2.30;2.20;;;20.50;99.90;;;;;;6154625;23;20423;-73
2023/09/02 11:57:35;;;;;;;1.40;1.40;;;20.50;99.90;;;;;;6153862;23;20939;-74
2023/09/02 12:00:02;;;;;;;1.60;1.50;;;20.50;99.90;;;;;;6151223;23;20426;-72
2023/09/02 12:02:29;;;;;;;1.40;1.40;;;20.50;99.90;;;;;;6152778;23;20419;-72
2023/09/02 12:04:56;;;;;;;1.70;1.60;;;20.60;99.90;;;;;;6152983;23;20903;-72
2023/09/02 12:07:24;;;;;;;1.93;1.83;;;20.70;99.90;;;;;;6152627;23;20482;-73
2023/09/02 12:09:52;;;;;;;1.47;1.47;;;20.70;99.90;;;;;;6153404;23;20419;-73
2023/09/02 12:12:18;;;;;;;1.83;1.73;;;20.60;99.90;;;;;;6152465;23;20467;-72
2023/09/02 12:14:47;;;;;;;1.40;1.40;;;20.60;99.90;;;;;;6152874;23;20403;-72
2023/09/02 12:17:14;;;;;;;1.40;1.40;;;20.50;99.90;;;;;;6152663;23;20450;-73
2023/09/02 12:19:41;;;;;;;1.80;1.80;;;20.50;99.90;;;;;;6151532;23;20600;-71
2023/09/02 12:22:08;;;;;;;3.70;1.40;;;20.50;99.90;;;;;;6152606;23;20527;-72
2023/09/02 12:24:36;;;;;;;1.30;1.30;;;20.40;99.90;;;;;;6153428;23;20442;-72
2023/09/02 12:27:03;;;;;;;2.00;1.90;;;20.40;99.90;;;;;;6153282;23;20426;-72
2023/09/02 12:29:30;;;;;;;1.50;1.50;;;20.30;99.90;;;;;;6152789;23;20446;-71
2023/09/02 12:31:58;;;;;;;1.30;1.30;;;20.40;99.90;;;;;;6152847;23;20419;-71
2023/09/02 12:34:25;;;;;;;1.87;1.77;;;20.70;99.90;;;;;;6152532;23;20419;-70
2023/09/02 12:36:52;;;;;;;1.80;1.70;;;20.90;99.90;;;;;;6151867;23;20419;-72
2023/09/02 12:39:23;;;;;;;1.73;1.40;;;21.10;99.90;;;;;;6152314;23;20450;-70
2023/09/02 12:41:51;;;;;;;1.10;1.10;;;21.20;99.90;;;;;;6154092;23;20920;-72
2023/09/02 12:44:19;;;;;;;1.60;1.50;;;21.20;99.90;;;;;;6154870;23;20425;-72
2023/09/02 12:46:46;;;;;;;1.93;1.40;;;21.30;99.90;;;;;;6155104;23;20473;-73
2023/09/02 12:49:14;;;;;;;1.60;1.60;;;21.50;99.90;;;;;;6155492;23;20441;-72
2023/09/02 12:51:41;;;;;;;1.40;1.40;;;21.70;99.90;;;;;;6155480;23;20437;-73
2023/09/02 12:54:10;;;;;;;1.90;1.80;;;21.80;99.90;;;;;;6155012;23;20433;-72
2023/09/02 12:56:37;;;;;;;2.30;2.20;;;21.90;99.90;;;;;;6153670;23;20883;-72
2023/09/02 12:59:05;;;;;;;1.40;1.40;;;22.00;99.90;;;;;;6152205;23;20442;-72
2023/09/02 13:01:32;;;;;;;1.40;1.30;;;22.00;99.90;;;;;;6153586;23;20433;-72
2023/09/02 13:04:01;;;;;;;1.57;1.47;;;22.00;99.90;;;;;;6156399;23;20421;-72
2023/09/02 13:06:30;;;;;;;1.30;1.30;;;21.90;99.90;;;;;;6156284;23;20489;-72
2023/09/02 13:08:57;;;;;;;2.77;1.40;;;21.90;99.90;;;;;;6156490;23;20448;-72
2023/09/02 13:11:27;;;;;;;1.30;1.30;;;21.80;99.90;;;;;;6156198;23;20422;-72
2023/09/02 13:13:53;;;;;;;1.43;1.33;;;21.80;99.90;;;;;;6156213;23;20449;-72
2023/09/02 13:16:22;;;;;;;1.40;1.40;;;21.80;99.90;;;;;;6155854;23;20527;-73
2023/09/02 13:18:48;;;;;;;1.60;1.60;;;21.90;99.90;;;;;;6156668;23;20225;-73
2023/09/02 13:21:15;;;;;;;1.70;1.60;;;21.90;99.90;;;;;;6155459;23;20428;-73
2023/09/02 13:23:42;;;;;;;1.30;1.30;;;22.00;99.90;;;;;;6155679;23;20768;-72
2023/09/02 13:26:14;;;;;;;1.60;1.60;;;22.00;99.90;;;;;;6155628;23;20427;-72
2023/09/02 13:28:41;;;;;;;1.27;1.27;;;22.10;99.90;;;;;;6154938;23;20468;-73
2023/09/02 13:31:08;;;;;;;1.40;1.30;;;22.10;99.90;;;;;;6155135;23;20429;-73
2023/09/02 13:33:40;;;;;;;1.50;1.40;;;22.10;99.90;;;;;;6155243;23;20452;-72
2023/09/02 13:36:07;;;;;;;1.77;1.67;;;22.00;99.90;;;;;;6154481;23;20465;-72
2023/09/02 13:38:34;;;;;;;1.40;1.40;;;21.90;99.90;;;;;;6154500;23;20944;-72
2023/09/02 13:41:00;;;;;;;1.60;1.60;;;21.90;99.90;;;;;;6154550;23;20901;-72
2023/09/02 13:43:27;;;;;;;1.37;1.27;;;22.00;99.90;;;;;;6154287;23;20417;-73
2023/09/02 13:45:54;;;;;;;1.47;1.47;;;22.00;99.90;;;;;;6154482;23;20492;-70
2023/09/02 13:48:22;;;;;;;2.10;1.70;;;22.00;99.90;;;;;;6153815;23;20450;-71
2023/09/02 13:50:50;;;;;;;2.47;2.10;;;22.00;99.90;;;;;;6152408;23;20941;-72
2023/09/02 13:53:18;;;;;;;1.70;1.57;;;22.00;99.90;;;;;;6152848;23;20460;-71
2023/09/02 13:55:47;;;;;;;1.57;1.47;;;21.90;99.90;;;;;;6153587;23;20421;-72
2023/09/02 13:58:19;;;;;;;1.30;1.30;;;21.90;99.90;;;;;;6154196;23;20441;-71
2023/09/02 14:00:46;;;;;;;1.47;1.37;;;22.00;99.90;;;;;;6154325;23;20870;-70
2023/09/02 14:03:18;;;;;;;1.60;1.60;;;22.00;99.90;;;;;;6153825;23;20429;-68
2023/09/02 14:05:46;;;;;;;1.37;1.37;;;22.00;99.90;;;;;;6153671;23;20405;-68
2023/09/02 14:08:17;;;;;;;1.40;1.40;;;22.10;99.90;;;;;;6151713;23;20458;-71
2023/09/02 14:10:44;;;;;;;1.20;1.20;;;22.10;99.90;;;;;;6148280;23;20432;-70
2023/09/02 14:13:11;;;;;;;1.90;1.77;;;22.00;99.90;;;;;;6149332;23;20519;-69
2023/09/02 14:15:38;;;;;;;2.20;1.30;;;22.00;99.90;;;;;;6149402;23;20428;-72
2023/09/02 14:18:05;;;;;;;1.47;1.47;;;22.00;99.90;;;;;;6148325;23;20758;-70
2023/09/02 14:20:32;;;;;;;1.63;1.63;;;22.00;99.90;;;;;;6149903;23;20426;-73
2023/09/02 14:22:59;;;;;;;1.70;1.70;;;22.00;99.90;;;;;;6148073;23;20417;-69
2023/09/02 14:25:27;;;;;;;1.50;1.47;;;21.90;99.90;;;;;;6149387;23;20428;-70
2023/09/02 14:27:54;;;;;;;1.30;1.20;;;21.80;99.90;;;;;;6149359;23;20782;-72
2023/09/02 14:30:21;;;;;;;1.47;1.47;;;21.90;99.90;;;;;;6150160;23;20425;-70
2023/09/02 14:32:47;;;;;;;1.40;1.40;;;21.90;99.90;;;;;;6148145;23;21011;-70
2023/09/02 14:35:14;;;;;;;1.57;1.57;;;21.90;99.90;;;;;;6148887;23;20432;-71
2023/09/02 14:37:41;;;;;;;3.80;2.10;;;21.90;99.90;;;;;;6148756;23;20540;-71
2023/09/02 14:40:08;;;;;;;1.47;1.47;;;22.00;99.90;;;;;;6152462;23;20429;-69
2023/09/02 14:42:36;;;;;;;1.40;1.40;;;22.00;99.90;;;;;;6153065;23;20451;-68
2023/09/02 14:45:04;;;;;;;2.03;1.73;;;22.00;99.90;;;;;;6153311;23;20632;-69
2023/09/02 14:47:32;;;;;;;1.47;1.47;;;22.10;99.90;;;;;;6153117;23;20425;-70
2023/09/02 14:49:59;;;;;;;2.27;1.67;;;22.10;99.90;;;;;;6152814;23;20587;-69
2023/09/02 14:52:27;;;;;;;1.40;1.40;;;22.10;99.90;;;;;;6152680;23;20422;-69
2023/09/02 14:54:54;;;;;;;1.80;1.80;;;22.10;99.90;;;;;;6153048;23;20452;-69
2023/09/02 14:57:23;;;;;;;3.43;2.17;;;22.10;99.90;;;;;;6152742;23;20429;-69
2023/09/02 14:59:52;;;;;;;1.90;1.80;;;22.10;99.90;;;;;;6152616;23;20429;-69
2023/09/02 15:02:22;;;;;;;5.00;2.07;;;22.00;99.90;;;;;;6152663;23;20472;-69
2023/09/02 15:04:49;;;;;;;1.60;1.50;;;22.00;99.90;;;;;;6152017;23;20402;-68
2023/09/02 15:07:16;;;;;;;1.23;1.23;;;22.00;99.90;;;;;;6152417;23;20409;-69
2023/09/02 15:09:43;;;;;;;1.70;1.70;;;21.90;99.90;;;;;;6149490;23;20422;-70
2023/09/02 15:12:13;;;;;;;1.47;1.37;;;21.80;99.90;;;;;;6150314;23;20427;-72
2023/09/02 15:14:39;;;;;;;1.67;1.57;;;21.80;99.90;;;;;;6152047;23;20441;-72
2023/09/02 15:17:08;;;;;;;1.17;1.17;;;21.70;99.90;;;;;;6151984;23;21028;-71
2023/09/02 15:19:35;;;;;;;1.23;1.23;;;21.60;99.90;;;;;;6151250;23;20464;-72
2023/09/02 15:22:02;;;;;;;2.10;2.00;;;21.60;99.90;;;;;;6161825;23;20493;-72
2023/09/02 15:24:32;;;;;;;1.47;1.47;;;21.50;99.90;;;;;;6152445;23;20426;-71
2023/09/02 15:27:00;;;;;;;1.67;1.67;;;21.40;99.90;;;;;;6151936;23;20854;-72
2023/09/02 15:29:27;;;;;;;2.20;2.20;;;21.30;99.90;;;;;;6152064;23;20444;-71
2023/09/02 15:31:54;;;;;;;2.23;2.13;;;21.30;99.90;;;;;;6152132;23;20431;-71
2023/09/02 15:34:22;;;;;;;2.53;2.40;;;21.30;99.90;;;;;;6151762;23;20454;-72
2023/09/02 15:36:52;;;;;;;1.33;1.33;;;21.30;99.90;;;;;;6152949;23;20518;-72
2023/09/02 15:39:25;;;;;;;1.97;1.97;;;21.30;99.90;;;;;;6152262;23;20968;-72
2023/09/02 15:41:53;;;;;;;2.30;2.20;;;21.30;99.90;;;;;;6153491;23;20404;-72
2023/09/02 15:44:19;;;;;;;1.50;1.50;;;21.20;99.90;;;;;;6152255;23;20419;-72
2023/09/02 15:46:46;;;;;;;2.10;1.90;;;21.10;99.90;;;;;;6152550;23;20420;-72
2023/09/02 15:49:13;;;;;;;1.60;1.60;;;21.10;99.90;;;;;;6152919;23;20449;-73
2023/09/02 15:51:41;;;;;;;1.73;1.63;;;21.00;99.90;;;;;;6152586;23;20418;-72
2023/09/02 15:54:08;;;;;;;2.23;1.40;;;21.00;99.90;;;;;;6162536;23;20526;-73
2023/09/02 15:56:35;;;;;;;1.40;1.40;;;21.00;99.90;;;;;;6152834;23;20419;-73
2023/09/02 15:59:03;;;;;;;1.60;1.60;;;21.00;99.90;;;;;;6153169;23;20532;-73
2023/09/02 16:01:30;;;;;;;2.20;1.40;;;21.00;99.90;;;;;;6161868;23;20770;-71
2023/09/02 16:03:57;;;;;;;1.40;1.40;;;21.00;99.90;;;;;;6153152;23;20426;-72
2023/09/02 16:06:23;;;;;;;2.57;2.40;;;21.00;99.90;;;;;;6151330;23;20424;-72
2023/09/02 16:08:52;;;;;;;3.17;2.97;;;21.00;99.90;;;;;;6151598;23;20442;-71
2023/09/02 16:11:19;;;;;;;2.27;2.10;;;21.10;99.90;;;;;;6151450;23;20431;-72
2023/09/02 16:13:46;;;;;;;1.63;1.63;;;21.10;99.90;;;;;;6152455;23;20438;-71
2023/09/02 16:16:12;;;;;;;1.70;1.70;;;21.10;99.90;;;;;;6153837;23;20437;-71
2023/09/02 16:18:39;;;;;;;2.30;2.20;;;21.10;99.90;;;;;;6150798;23;20458;-69
2023/09/02 16:21:06;;;;;;;1.60;1.50;;;21.00;99.90;;;;;;6149233;23;20426;-73
2023/09/02 16:23:33;;;;;;;1.70;1.70;;;20.90;99.90;;;;;;6150364;23;20420;-70
2023/09/02 16:26:01;;;;;;;1.50;1.50;;;20.80;99.90;;;;;;6150894;23;20802;-70
2023/09/02 16:28:27;;;;;;;1.50;1.50;;;20.70;99.90;;;;;;6150573;23;20438;-69
2023/09/02 16:30:54;;;;;;;2.20;2.10;;;20.70;99.90;;;;;;6150642;23;21100;-71
2023/09/02 16:33:21;;;;;;;4.03;1.53;;;20.60;99.90;;;;;;6152330;23;20418;-69
2023/09/02 16:35:49;;;;;;;7.40;4.63;;;20.50;99.90;;;;;;6154695;23;20429;-70
2023/09/02 16:38:16;;;;;;;26.70;15.40;;;20.50;99.90;;;;;;6154914;23;20449;-69
2023/09/02 16:40:43;;;;;;;7.93;5.93;;;20.40;99.90;;;;;;6153637;23;20438;-68
2023/09/02 16:43:15;;;;;;;10.00;7.43;;;20.40;99.90;;;;;;6151416;23;20423;-72
2023/09/02 16:45:44;;;;;;;18.87;13.60;;;20.40;99.90;;;;;;6154049;23;20403;-70
2023/09/02 16:48:12;;;;;;;16.80;13.40;;;20.40;99.90;;;;;;6154357;23;20438;-69
2023/09/02 16:50:39;;;;;;;8.67;6.77;;;20.40;99.90;;;;;;6154229;23;20454;-69